PWSweather.com
Personal Weather Stations
Station Observations
KCANORTH19
Rocking L Ranch, North Fork, CA

Rocking L RanchNorth Fork, CA

Lat: 37.248, Lon: -119.56

Elevation: 3093

Station Type: Davis Vantage Pro 2

Latest ConditionsUpdated 5:35:05 PM PDT Wednesday, May 25, 2016
Currently Today's Max Today's Min Today's Average
Temperature 54.9°F12.7°C 62.1°F16.7°C 44.2°F6.8°C 52.7°F11.5°C
Dew Point 52.9°F11.6°C 53.8°F12.1°C 41.1°F5.1°C 48.0°F8.9°C
Winds Calm Calm 10.0 mph WNW16.1 kmh WNW - 0.8 mph 1.3 kmh
Wind Gusts 5.0 mph8.0 kmh 14.0 mph22.5 kmh - -
Humidity 93% 95% 68% 85%
Pressure 30.04 in1017.3 mb 30.05 in1017.6 mb 29.95 in1014.2 mb -
Hour Temp Dew Point Humidity Winds Wind Gusts Pressure Precip Precip Rate Daily Precip Total
05:35 PM 54.9°F12.7°C 52.9°F11.6°C 93% Calm Calm 5.0 mph8.0 kmh 30.04 in1017.3 mb 0.14 in3.6 mm 0.00 in0.0 mm 0.48 in12.2 mm
05:30 PM 54.9°F12.7°C 52.9°F11.6°C 93% 3.0 mph NE4.8 kmh NE 3.0 mph4.8 kmh 30.04 in1017.3 mb 0.30 in7.6 mm 0.00 in0.0 mm 0.48 in12.2 mm
05:25 PM 54.8°F12.7°C 52.8°F11.6°C 93% Calm Calm 1.0 mph1.6 kmh 30.05 in1017.6 mb 0.30 in7.6 mm 0.00 in0.0 mm 0.48 in12.2 mm
05:20 PM 54.7°F12.6°C 52.4°F11.3°C 92% Calm Calm -- 30.05 in1017.6 mb 0.30 in7.6 mm 0.12 in3.0 mm 0.48 in12.2 mm
05:15 PM 54.6°F12.6°C 52.3°F11.3°C 92% Calm Calm -- 30.05 in1017.6 mb 0.29 in7.4 mm 0.24 in6.1 mm 0.47 in11.9 mm
05:10 PM 54.7°F12.6°C 52.4°F11.3°C 92% Calm Calm -- 30.05 in1017.6 mb 0.27 in6.9 mm 0.36 in9.1 mm 0.45 in11.4 mm
05:05 PM 54.7°F12.6°C 52.4°F11.3°C 92% Calm Calm -- 30.05 in1017.6 mb 0.24 in6.1 mm 0.00 in0.0 mm 0.42 in10.7 mm
04:55 PM 54.8°F12.7°C 52.5°F11.4°C 92% Calm Calm 6.0 mph9.7 kmh 30.05 in1017.6 mb 0.38 in9.7 mm 0.00 in0.0 mm 0.42 in10.7 mm
04:50 PM 54.8°F12.7°C 52.2°F11.2°C 91% Calm Calm 6.0 mph9.7 kmh 30.05 in1017.6 mb 0.38 in9.7 mm 0.00 in0.0 mm 0.42 in10.7 mm
04:45 PM 54.9°F12.7°C 52.3°F11.3°C 91% Calm Calm 6.0 mph9.7 kmh 30.05 in1017.6 mb 0.38 in9.7 mm 0.12 in3.0 mm 0.42 in10.7 mm
04:40 PM 55.0°F12.8°C 52.4°F11.3°C 91% Calm Calm 6.0 mph9.7 kmh 30.05 in1017.6 mb 0.37 in9.4 mm 0.00 in0.0 mm 0.41 in10.4 mm
04:35 PM 55.0°F12.8°C 52.1°F11.2°C 90% Calm Calm 4.0 mph6.4 kmh 30.05 in1017.6 mb 0.37 in9.4 mm 0.00 in0.0 mm 0.41 in10.4 mm
04:30 PM 55.1°F12.8°C 52.2°F11.2°C 90% 1.0 mph SE1.6 kmh SE 6.0 mph9.7 kmh 30.05 in1017.6 mb 0.37 in9.4 mm 0.00 in0.0 mm 0.41 in10.4 mm
04:25 PM 55.1°F12.8°C 52.2°F11.2°C 90% 1.0 mph SE1.6 kmh SE 6.0 mph9.7 kmh 30.05 in1017.6 mb 0.37 in9.4 mm 0.36 in9.1 mm 0.41 in10.4 mm
04:20 PM 55.2°F12.9°C 52.0°F11.1°C 89% Calm Calm 6.0 mph9.7 kmh 30.05 in1017.6 mb 0.34 in8.6 mm 0.60 in15.2 mm 0.38 in9.7 mm
04:15 PM 55.3°F12.9°C 51.8°F11.0°C 88% 2.0 mph ENE3.2 kmh ENE 6.0 mph9.7 kmh 30.05 in1017.6 mb 0.29 in7.4 mm 0.60 in15.2 mm 0.33 in8.4 mm
04:10 PM 55.6°F13.1°C 52.1°F11.2°C 88% Calm Calm 6.0 mph9.7 kmh 30.05 in1017.6 mb 0.24 in6.1 mm 0.24 in6.1 mm 0.28 in7.1 mm
04:05 PM 55.9°F13.3°C 52.1°F11.2°C 87% 2.0 mph E3.2 kmh E 4.0 mph6.4 kmh 30.05 in1017.6 mb 0.22 in5.6 mm 0.00 in0.0 mm 0.26 in6.6 mm
04:00 PM 56.2°F13.4°C 52.4°F11.3°C 87% Calm Calm 5.0 mph8.0 kmh 30.05 in1017.6 mb 0.26 in6.6 mm 0.01 in0.3 mm 0.26 in6.6 mm
03:55 PM 56.5°F13.6°C 52.4°F11.3°C 86% Calm Calm 5.0 mph8.0 kmh 30.05 in1017.6 mb 0.25 in6.4 mm 0.60 in15.2 mm 0.25 in6.4 mm
03:50 PM 56.7°F13.7°C 52.6°F11.4°C 86% Calm Calm 5.0 mph8.0 kmh 30.05 in1017.6 mb 0.20 in5.1 mm 0.24 in6.1 mm 0.20 in5.1 mm
03:45 PM 57.1°F13.9°C 53.0°F11.7°C 86% 3.0 mph NNE4.8 kmh NNE 4.0 mph6.4 kmh 30.05 in1017.6 mb 0.18 in4.6 mm 0.48 in12.2 mm 0.18 in4.6 mm
03:40 PM 57.3°F14.1°C 52.8°F11.6°C 85% Calm Calm 4.0 mph6.4 kmh 30.05 in1017.6 mb 0.14 in3.6 mm 0.24 in6.1 mm 0.14 in3.6 mm
03:35 PM 57.5°F14.2°C 53.0°F11.7°C 85% Calm Calm 4.0 mph6.4 kmh 30.04 in1017.3 mb 0.12 in3.0 mm 0.48 in12.2 mm 0.12 in3.0 mm
03:30 PM 57.9°F14.4°C 53.1°F11.7°C 84% Calm Calm 2.0 mph3.2 kmh 30.05 in1017.6 mb 0.08 in2.0 mm 0.12 in3.0 mm 0.08 in2.0 mm
03:25 PM 58.2°F14.6°C 53.7°F12.1°C 85% Calm Calm 2.0 mph3.2 kmh 30.04 in1017.3 mb 0.07 in1.8 mm 0.00 in0.0 mm 0.07 in1.8 mm
03:20 PM 58.3°F14.6°C 53.5°F11.9°C 84% Calm Calm 2.0 mph3.2 kmh 30.04 in1017.3 mb 0.07 in1.8 mm 0.12 in3.0 mm 0.07 in1.8 mm
03:15 PM 58.5°F14.7°C 53.7°F12.1°C 84% Calm Calm 2.0 mph3.2 kmh 30.04 in1017.3 mb 0.06 in1.5 mm 0.00 in0.0 mm 0.06 in1.5 mm
03:10 PM 58.6°F14.8°C 53.8°F12.1°C 84% 1.0 mph E1.6 kmh E 2.0 mph3.2 kmh 30.04 in1017.3 mb 0.06 in1.5 mm 0.00 in0.0 mm 0.06 in1.5 mm
03:05 PM 58.8°F14.9°C 53.7°F12.1°C 83% Calm Calm 1.0 mph1.6 kmh 30.04 in1017.3 mb 0.06 in1.5 mm 0.00 in0.0 mm 0.06 in1.5 mm
03:00 PM 59.1°F15.1°C 53.6°F12.0°C 82% Calm Calm 4.0 mph6.4 kmh 30.04 in1017.3 mb 0.06 in1.5 mm 0.00 in0.0 mm 0.06 in1.5 mm
02:55 PM 59.3°F15.2°C 53.5°F11.9°C 81% Calm Calm 4.0 mph6.4 kmh 30.04 in1017.3 mb 0.06 in1.5 mm 0.00 in0.0 mm 0.06 in1.5 mm
02:50 PM 59.6°F15.3°C 53.4°F11.9°C 80% Calm Calm 4.0 mph6.4 kmh 30.04 in1017.3 mb 0.06 in1.5 mm 0.24 in6.1 mm 0.06 in1.5 mm
02:45 PM 59.8°F15.4°C 53.3°F11.8°C 79% Calm Calm 4.0 mph6.4 kmh 30.04 in1017.3 mb 0.04 in1.0 mm 0.48 in12.2 mm 0.04 in1.0 mm
02:40 PM 59.8°F15.4°C 51.5°F10.8°C 74% 3.0 mph SE4.8 kmh SE 4.0 mph6.4 kmh 30.04 in1017.3 mb 0.00 in0.0 mm 0.00 in0.0 mm 0.00 in0.0 mm
02:35 PM 59.8°F15.4°C 51.5°F10.8°C 74% Calm Calm 3.0 mph4.8 kmh 30.04 in1017.3 mb 0.00 in0.0 mm 0.00 in0.0 mm 0.00 in0.0 mm
02:30 PM 59.8°F15.4°C 51.1°F10.6°C 73% Calm Calm 7.0 mph11.3 kmh 30.04 in1017.3 mb 0.00 in0.0 mm 0.00 in0.0 mm 0.00 in0.0 mm
02:25 PM 59.7°F15.4°C 51.0°F10.6°C 73% Calm Calm 7.0 mph11.3 kmh 30.04 in1017.3 mb 0.00 in0.0 mm 0.00 in0.0 mm 0.00 in0.0 mm
02:20 PM 59.6°F15.3°C 51.3°F10.7°C 74% Calm Calm 7.0 mph11.3 kmh 30.04 in1017.3 mb 0.00 in0.0 mm 0.00 in0.0 mm 0.00 in0.0 mm
02:15 PM 59.5°F15.3°C 51.6°F10.9°C 75% 3.0 mph ESE4.8 kmh ESE 7.0 mph11.3 kmh 30.04 in1017.3 mb 0.00 in0.0 mm 0.00 in0.0 mm 0.00 in0.0 mm
02:10 PM 59.4°F15.2°C 51.5°F10.8°C 75% 1.0 mph ESE1.6 kmh ESE 7.0 mph11.3 kmh 30.04 in1017.3 mb 0.00 in0.0 mm 0.00 in0.0 mm 0.00 in0.0 mm
02:05 PM 59.3°F15.2°C 51.4°F10.8°C 75% Calm Calm 7.0 mph11.3 kmh 30.04 in1017.3 mb 0.00 in0.0 mm 0.00 in0.0 mm 0.00 in0.0 mm
02:00 PM 59.3°F15.2°C 51.0°F10.6°C 74% Calm Calm 6.0 mph9.7 kmh 30.05 in1017.6 mb 0.00 in0.0 mm 0.00 in0.0 mm 0.00 in0.0 mm
01:55 PM 59.4°F15.2°C 51.1°F10.6°C 74% Calm Calm 6.0 mph9.7 kmh 30.04 in1017.3 mb 0.00 in0.0 mm 0.00 in0.0 mm 0.00 in0.0 mm
01:50 PM 59.4°F15.2°C 50.8°F10.4°C 73% Calm Calm 4.0 mph6.4 kmh 30.04 in1017.3 mb 0.00 in0.0 mm 0.00 in0.0 mm 0.00 in0.0 mm
01:45 PM 59.5°F15.3°C 51.2°F10.7°C 74% Calm Calm 4.0 mph6.4 kmh 30.04 in1017.3 mb 0.00 in0.0 mm 0.00 in0.0 mm 0.00 in0.0 mm
01:40 PM 59.5°F15.3°C 50.9°F10.5°C 73% Calm Calm 3.0 mph4.8 kmh 30.04 in1017.3 mb 0.00 in0.0 mm 0.00 in0.0 mm 0.00 in0.0 mm
01:35 PM 59.6°F15.3°C 51.0°F10.6°C 73% Calm Calm 3.0 mph4.8 kmh 30.04 in1017.3 mb 0.00 in0.0 mm 0.00 in0.0 mm 0.00 in0.0 mm
01:30 PM 59.6°F15.3°C 50.6°F10.3°C 72% Calm Calm 5.0 mph8.0 kmh 30.04 in1017.3 mb 0.00 in0.0 mm 0.00 in0.0 mm 0.00 in0.0 mm
01:25 PM 59.6°F15.3°C 51.0°F10.6°C 73% Calm Calm 5.0 mph8.0 kmh 30.04 in1017.3 mb 0.00 in0.0 mm 0.00 in0.0 mm 0.00 in0.0 mm
01:20 PM 59.7°F15.4°C 50.7°F10.4°C 72% 1.0 mph SE1.6 kmh SE 5.0 mph8.0 kmh 30.04 in1017.3 mb 0.00 in0.0 mm 0.00 in0.0 mm 0.00 in0.0 mm
01:15 PM 59.7°F15.4°C 50.7°F10.4°C 72% Calm Calm 5.0 mph8.0 kmh 30.04 in1017.3 mb 0.00 in0.0 mm 0.00 in0.0 mm 0.00 in0.0 mm
01:10 PM 59.9°F15.5°C 50.5°F10.3°C 71% Calm Calm 5.0 mph8.0 kmh 30.04 in1017.3 mb 0.00 in0.0 mm 0.00 in0.0 mm 0.00 in0.0 mm
01:05 PM 59.9°F15.5°C 50.9°F10.5°C 72% Calm Calm 5.0 mph8.0 kmh 30.04 in1017.3 mb 0.00 in0.0 mm 0.00 in0.0 mm 0.00 in0.0 mm
01:00 PM 60.0°F15.6°C 51.0°F10.6°C 72% 2.0 mph ESE3.2 kmh ESE 5.0 mph8.0 kmh 30.04 in1017.3 mb 0.00 in0.0 mm 0.00 in0.0 mm 0.00 in0.0 mm
12:55 PM 60.1°F15.6°C 50.7°F10.4°C 71% Calm Calm 2.0 mph3.2 kmh 30.04 in1017.3 mb 0.00 in0.0 mm 0.00 in0.0 mm 0.00 in0.0 mm
12:50 PM 60.2°F15.7°C 50.4°F10.2°C 70% Calm Calm 2.0 mph3.2 kmh 30.03 in1016.9 mb 0.00 in0.0 mm 0.00 in0.0 mm 0.00 in0.0 mm
12:45 PM 60.3°F15.7°C 50.5°F10.3°C 70% Calm Calm 2.0 mph3.2 kmh 30.04 in1017.3 mb 0.00 in0.0 mm 0.00 in0.0 mm 0.00 in0.0 mm
12:40 PM 60.5°F15.8°C 50.7°F10.4°C 70% Calm Calm 2.0 mph3.2 kmh 30.04 in1017.3 mb 0.00 in0.0 mm 0.00 in0.0 mm 0.00 in0.0 mm
12:35 PM 60.6°F15.9°C 50.8°F10.4°C 70% Calm Calm 2.0 mph3.2 kmh 30.03 in1016.9 mb 0.00 in0.0 mm 0.00 in0.0 mm 0.00 in0.0 mm
12:30 PM 60.7°F15.9°C 51.3°F10.7°C 71% Calm Calm 10.0 mph16.1 kmh 30.03 in1016.9 mb 0.00 in0.0 mm 0.00 in0.0 mm 0.00 in0.0 mm
12:25 PM 60.9°F16.1°C 50.7°F10.4°C 69% Calm Calm 10.0 mph16.1 kmh 30.03 in1016.9 mb 0.00 in0.0 mm 0.00 in0.0 mm 0.00 in0.0 mm
12:20 PM 61.1°F16.2°C 51.3°F10.7°C 70% 2.0 mph WNW3.2 kmh WNW 10.0 mph16.1 kmh 30.03 in1016.9 mb 0.00 in0.0 mm 0.00 in0.0 mm 0.00 in0.0 mm
12:15 PM 61.3°F16.3°C 51.5°F10.8°C 70% 9.0 mph W14.5 kmh W 9.0 mph14.5 kmh 30.03 in1016.9 mb 0.00 in0.0 mm 0.00 in0.0 mm 0.00 in0.0 mm
12:10 PM 61.5°F16.4°C 51.3°F10.7°C 69% 7.0 mph WNW11.3 kmh WNW 8.0 mph12.9 kmh 30.03 in1016.9 mb 0.00 in0.0 mm 0.00 in0.0 mm 0.00 in0.0 mm
12:05 PM 61.5°F16.4°C 51.6°F10.9°C 70% Calm Calm 8.0 mph12.9 kmh 30.03 in1016.9 mb 0.00 in0.0 mm 0.00 in0.0 mm 0.00 in0.0 mm
12:00 PM 61.7°F16.5°C 51.4°F10.8°C 69% Calm Calm 11.0 mph17.7 kmh 30.03 in1016.9 mb 0.00 in0.0 mm 0.00 in0.0 mm 0.00 in0.0 mm
11:55 AM 61.8°F16.6°C 51.9°F11.1°C 70% 7.0 mph W11.3 kmh W 11.0 mph17.7 kmh 30.03 in1016.9 mb 0.00 in0.0 mm 0.00 in0.0 mm 0.00 in0.0 mm
11:50 AM 61.7°F16.5°C 51.8°F11.0°C 70% 2.0 mph W3.2 kmh W 11.0 mph17.7 kmh 30.03 in1016.9 mb 0.00 in0.0 mm 0.00 in0.0 mm 0.00 in0.0 mm
11:45 AM 61.8°F16.6°C 51.5°F10.8°C 69% Calm Calm 11.0 mph17.7 kmh 30.03 in1016.9 mb 0.00 in0.0 mm 0.00 in0.0 mm 0.00 in0.0 mm
11:40 AM 62.0°F16.7°C 51.3°F10.7°C 68% 7.0 mph W11.3 kmh W 11.0 mph17.7 kmh 30.03 in1016.9 mb 0.00 in0.0 mm 0.00 in0.0 mm 0.00 in0.0 mm
11:35 AM 62.1°F16.7°C 52.2°F11.2°C 70% 8.0 mph WSW12.9 kmh WSW 10.0 mph16.1 kmh 30.03 in1016.9 mb 0.00 in0.0 mm 0.00 in0.0 mm 0.00 in0.0 mm
11:30 AM 62.1°F16.7°C 52.2°F11.2°C 70% 2.0 mph NNW3.2 kmh NNW 13.0 mph20.9 kmh 30.02 in1016.6 mb 0.00 in0.0 mm 0.00 in0.0 mm 0.00 in0.0 mm
11:25 AM 62.0°F16.7°C 51.7°F10.9°C 69% 1.0 mph NW1.6 kmh NW 13.0 mph20.9 kmh 30.02 in1016.6 mb 0.00 in0.0 mm 0.00 in0.0 mm 0.00 in0.0 mm
11:20 AM 62.0°F16.7°C 52.1°F11.2°C 70% Calm Calm 13.0 mph20.9 kmh 30.03 in1016.9 mb 0.00 in0.0 mm 0.00 in0.0 mm 0.00 in0.0 mm
11:15 AM 62.0°F16.7°C 52.1°F11.2°C 70% 10.0 mph NW16.1 kmh NW 13.0 mph20.9 kmh 30.02 in1016.6 mb 0.00 in0.0 mm 0.00 in0.0 mm 0.00 in0.0 mm
11:10 AM 61.8°F16.6°C 51.5°F10.8°C 69% 3.0 mph WSW4.8 kmh WSW 11.0 mph17.7 kmh 30.02 in1016.6 mb 0.00 in0.0 mm 0.00 in0.0 mm 0.00 in0.0 mm
11:05 AM 61.5°F16.4°C 51.6°F10.9°C 70% 6.0 mph WNW9.7 kmh WNW 9.0 mph14.5 kmh 30.02 in1016.6 mb 0.00 in0.0 mm 0.00 in0.0 mm 0.00 in0.0 mm
11:00 AM 61.4°F16.3°C 51.5°F10.8°C 70% 10.0 mph WNW16.1 kmh WNW 14.0 mph22.5 kmh 30.02 in1016.6 mb 0.00 in0.0 mm 0.00 in0.0 mm 0.00 in0.0 mm
10:55 AM 61.0°F16.1°C 51.5°F10.8°C 71% 1.0 mph SW1.6 kmh SW 6.0 mph9.7 kmh 30.02 in1016.6 mb 0.00 in0.0 mm 0.00 in0.0 mm 0.00 in0.0 mm
10:50 AM 60.5°F15.8°C 51.8°F11.0°C 73% Calm Calm 6.0 mph9.7 kmh 30.02 in1016.6 mb 0.00 in0.0 mm 0.00 in0.0 mm 0.00 in0.0 mm
10:45 AM 60.2°F15.7°C 51.2°F10.7°C 72% 2.0 mph WNW3.2 kmh WNW 6.0 mph9.7 kmh 30.02 in1016.6 mb 0.00 in0.0 mm 0.00 in0.0 mm 0.00 in0.0 mm
10:40 AM 60.5°F15.8°C 51.4°F10.8°C 72% 2.0 mph WNW3.2 kmh WNW 6.0 mph9.7 kmh 30.02 in1016.6 mb 0.00 in0.0 mm 0.00 in0.0 mm 0.00 in0.0 mm
10:35 AM 60.7°F15.9°C 51.3°F10.7°C 71% 2.0 mph NE3.2 kmh NE 4.0 mph6.4 kmh 30.02 in1016.6 mb 0.00 in0.0 mm 0.00 in0.0 mm 0.00 in0.0 mm
10:30 AM 60.7°F15.9°C 51.6°F10.9°C 72% 2.0 mph NE3.2 kmh NE 12.0 mph19.3 kmh 30.02 in1016.6 mb 0.00 in0.0 mm 0.00 in0.0 mm 0.00 in0.0 mm
10:25 AM 60.2°F15.7°C 51.9°F11.1°C 74% 1.0 mph E1.6 kmh E 12.0 mph19.3 kmh 30.02 in1016.6 mb 0.00 in0.0 mm 0.00 in0.0 mm 0.00 in0.0 mm
10:20 AM 60.0°F15.6°C 51.3°F10.7°C 73% 1.0 mph NW1.6 kmh NW 12.0 mph19.3 kmh 30.02 in1016.6 mb 0.00 in0.0 mm 0.00 in0.0 mm 0.00 in0.0 mm
10:15 AM 59.8°F15.4°C 51.1°F10.6°C 73% 2.0 mph SW3.2 kmh SW 12.0 mph19.3 kmh 30.02 in1016.6 mb 0.00 in0.0 mm 0.00 in0.0 mm 0.00 in0.0 mm
10:10 AM 59.8°F15.4°C 51.1°F10.6°C 73% Calm Calm 12.0 mph19.3 kmh 30.02 in1016.6 mb 0.00 in0.0 mm 0.00 in0.0 mm 0.00 in0.0 mm
10:05 AM 59.6°F15.3°C 51.3°F10.7°C 74% 3.0 mph WNW4.8 kmh WNW 8.0 mph12.9 kmh 30.01 in1016.3 mb 0.00 in0.0 mm 0.00 in0.0 mm 0.00 in0.0 mm
10:00 AM 59.5°F15.3°C 50.9°F10.5°C 73% 2.0 mph W3.2 kmh W 7.0 mph11.3 kmh 30.01 in1016.3 mb 0.00 in0.0 mm 0.00 in0.0 mm 0.00 in0.0 mm
09:55 AM 59.1°F15.1°C 51.2°F10.7°C 75% Calm Calm 7.0 mph11.3 kmh 30.01 in1016.3 mb 0.00 in0.0 mm 0.00 in0.0 mm 0.00 in0.0 mm
09:50 AM 58.9°F14.9°C 51.0°F10.6°C 75% 4.0 mph W6.4 kmh W 6.0 mph9.7 kmh 30.01 in1016.3 mb 0.00 in0.0 mm 0.00 in0.0 mm 0.00 in0.0 mm
09:45 AM 58.7°F14.8°C 50.8°F10.4°C 75% 1.0 mph NNW1.6 kmh NNW 6.0 mph9.7 kmh 30.01 in1016.3 mb 0.00 in0.0 mm 0.00 in0.0 mm 0.00 in0.0 mm
09:40 AM 58.4°F14.7°C 50.9°F10.5°C 76% Calm Calm 4.0 mph6.4 kmh 30.01 in1016.3 mb 0.00 in0.0 mm 0.00 in0.0 mm 0.00 in0.0 mm
09:35 AM 58.2°F14.6°C 50.7°F10.4°C 76% Calm Calm 4.0 mph6.4 kmh 30.01 in1016.3 mb 0.00 in0.0 mm 0.00 in0.0 mm 0.00 in0.0 mm
09:30 AM 58.0°F14.4°C 50.1°F10.1°C 75% 3.0 mph WSW4.8 kmh WSW 9.0 mph14.5 kmh 30.01 in1016.3 mb 0.00 in0.0 mm 0.00 in0.0 mm 0.00 in0.0 mm
09:25 AM 57.9°F14.4°C 50.4°F10.2°C 76% 6.0 mph W9.7 kmh W 9.0 mph14.5 kmh 30.01 in1016.3 mb 0.00 in0.0 mm 0.00 in0.0 mm 0.00 in0.0 mm
09:20 AM 57.7°F14.3°C 50.6°F10.3°C 77% 2.0 mph WNW3.2 kmh WNW 9.0 mph14.5 kmh 30.01 in1016.3 mb 0.00 in0.0 mm 0.00 in0.0 mm 0.00 in0.0 mm
09:15 AM 57.4°F14.1°C 50.6°F10.3°C 78% 6.0 mph W9.7 kmh W 9.0 mph14.5 kmh 30.01 in1016.3 mb 0.00 in0.0 mm 0.00 in0.0 mm 0.00 in0.0 mm
09:10 AM 57.1°F13.9°C 50.0°F10.0°C 77% 5.0 mph WSW8.0 kmh WSW 9.0 mph14.5 kmh 30.01 in1016.3 mb 0.00 in0.0 mm 0.00 in0.0 mm 0.00 in0.0 mm
09:05 AM 56.8°F13.8°C 50.0°F10.0°C 78% 2.0 mph SW3.2 kmh SW 7.0 mph11.3 kmh 30.01 in1016.3 mb 0.00 in0.0 mm 0.00 in0.0 mm 0.00 in0.0 mm
09:00 AM 56.5°F13.6°C 50.1°F10.1°C 79% Calm Calm 8.0 mph12.9 kmh 30.01 in1016.3 mb 0.00 in0.0 mm 0.00 in0.0 mm 0.00 in0.0 mm
08:55 AM 56.3°F13.5°C 50.6°F10.3°C 81% Calm Calm 8.0 mph12.9 kmh 30.01 in1016.3 mb 0.00 in0.0 mm 0.00 in0.0 mm 0.00 in0.0 mm
08:50 AM 55.9°F13.3°C 50.2°F10.1°C 81% 3.0 mph WSW4.8 kmh WSW 8.0 mph12.9 kmh 30.01 in1016.3 mb 0.00 in0.0 mm 0.00 in0.0 mm 0.00 in0.0 mm
08:45 AM 55.3°F12.9°C 50.6°F10.3°C 84% 5.0 mph W8.0 kmh W 7.0 mph11.3 kmh 30.01 in1016.3 mb 0.00 in0.0 mm 0.00 in0.0 mm 0.00 in0.0 mm
08:40 AM 54.8°F12.7°C 50.7°F10.4°C 86% Calm Calm 3.0 mph4.8 kmh 30.01 in1016.3 mb 0.00 in0.0 mm 0.00 in0.0 mm 0.00 in0.0 mm
08:35 AM 54.3°F12.4°C 50.8°F10.4°C 88% 1.0 mph ESE1.6 kmh ESE 3.0 mph4.8 kmh 30.01 in1016.3 mb 0.00 in0.0 mm 0.00 in0.0 mm 0.00 in0.0 mm
08:30 AM 53.7°F12.1°C 50.8°F10.4°C 90% Calm Calm 6.0 mph9.7 kmh 30.00 in1015.9 mb 0.00 in0.0 mm 0.00 in0.0 mm 0.00 in0.0 mm
08:25 AM 53.1°F11.7°C 50.8°F10.4°C 92% 2.0 mph ESE3.2 kmh ESE 6.0 mph9.7 kmh 30.00 in1015.9 mb 0.00 in0.0 mm 0.00 in0.0 mm 0.00 in0.0 mm
08:20 AM 52.5°F11.4°C 50.5°F10.3°C 93% 2.0 mph S3.2 kmh S 6.0 mph9.7 kmh 30.00 in1015.9 mb 0.00 in0.0 mm 0.00 in0.0 mm 0.00 in0.0 mm
08:15 AM 52.0°F11.1°C 50.3°F10.2°C 94% 3.0 mph SSW4.8 kmh SSW 5.0 mph8.0 kmh 30.00 in1015.9 mb 0.00 in0.0 mm 0.00 in0.0 mm 0.00 in0.0 mm
08:10 AM 51.7°F10.9°C 50.3°F10.2°C 95% Calm Calm 5.0 mph8.0 kmh 30.00 in1015.9 mb 0.00 in0.0 mm 0.00 in0.0 mm 0.00 in0.0 mm
08:05 AM 51.2°F10.7°C 49.8°F9.9°C 95% Calm Calm 3.0 mph4.8 kmh 30.00 in1015.9 mb 0.00 in0.0 mm 0.00 in0.0 mm 0.00 in0.0 mm
08:00 AM 50.8°F10.4°C 49.4°F9.7°C 95% Calm Calm 2.0 mph3.2 kmh 30.00 in1015.9 mb 0.00 in0.0 mm 0.00 in0.0 mm 0.00 in0.0 mm
07:55 AM 50.3°F10.2°C 48.6°F9.2°C 94% Calm Calm 2.0 mph3.2 kmh 30.00 in1015.9 mb 0.00 in0.0 mm 0.00 in0.0 mm 0.00 in0.0 mm
07:50 AM 49.9°F9.9°C 48.5°F9.2°C 95% 1.0 mph NW1.6 kmh NW 2.0 mph3.2 kmh 30.00 in1015.9 mb 0.00 in0.0 mm 0.00 in0.0 mm 0.00 in0.0 mm
07:45 AM 49.6°F9.8°C 48.2°F9.0°C 95% Calm Calm 2.0 mph3.2 kmh 30.00 in1015.9 mb 0.00 in0.0 mm 0.00 in0.0 mm 0.00 in0.0 mm
07:40 AM 49.0°F9.4°C 47.6°F8.7°C 95% Calm Calm 2.0 mph3.2 kmh 30.00 in1015.9 mb 0.00 in0.0 mm 0.00 in0.0 mm 0.00 in0.0 mm
07:35 AM 48.5°F9.2°C 46.9°F8.3°C 94% Calm Calm 2.0 mph3.2 kmh 30.00 in1015.9 mb 0.00 in0.0 mm 0.00 in0.0 mm 0.00 in0.0 mm
07:30 AM 47.9°F8.8°C 46.3°F7.9°C 94% Calm Calm -- 30.00 in1015.9 mb 0.00 in0.0 mm 0.00 in0.0 mm 0.00 in0.0 mm
07:25 AM 47.1°F8.4°C 45.5°F7.5°C 94% Calm Calm -- 30.00 in1015.9 mb 0.00 in0.0 mm 0.00 in0.0 mm 0.00 in0.0 mm
07:20 AM 46.7°F8.2°C 45.1°F7.3°C 94% Calm Calm -- 30.00 in1015.9 mb 0.00 in0.0 mm 0.00 in0.0 mm 0.00 in0.0 mm
07:15 AM 46.4°F8.0°C 44.8°F7.1°C 94% Calm Calm -- 30.00 in1015.9 mb 0.00 in0.0 mm 0.00 in0.0 mm 0.00 in0.0 mm
07:10 AM 46.0°F7.8°C 44.1°F6.7°C 93% Calm Calm -- 30.00 in1015.9 mb 0.00 in0.0 mm 0.00 in0.0 mm 0.00 in0.0 mm
07:05 AM 45.7°F7.6°C 43.8°F6.6°C 93% Calm Calm -- 30.00 in1015.9 mb 0.00 in0.0 mm 0.00 in0.0 mm 0.00 in0.0 mm
07:00 AM 45.4°F7.4°C 43.5°F6.4°C 93% Calm Calm -- 30.00 in1015.9 mb 0.00 in0.0 mm 0.00 in0.0 mm 0.00 in0.0 mm
06:55 AM 45.2°F7.3°C 43.3°F6.3°C 93% Calm Calm -- 30.00 in1015.9 mb 0.00 in0.0 mm 0.00 in0.0 mm 0.00 in0.0 mm
06:50 AM 45.2°F7.3°C 43.3°F6.3°C 93% Calm Calm -- 30.00 in1015.9 mb 0.00 in0.0 mm 0.00 in0.0 mm 0.00 in0.0 mm
06:45 AM 45.1°F7.3°C 42.9°F6.1°C 92% Calm Calm -- 30.00 in1015.9 mb 0.00 in0.0 mm 0.00 in0.0 mm 0.00 in0.0 mm
06:40 AM 45.1°F7.3°C 42.9°F6.1°C 92% Calm Calm -- 29.99 in1015.6 mb 0.00 in0.0 mm 0.00 in0.0 mm 0.00 in0.0 mm
06:35 AM 45.1°F7.3°C 42.9°F6.1°C 92% Calm Calm -- 30.00 in1015.9 mb 0.00 in0.0 mm 0.00 in0.0 mm 0.00 in0.0 mm
06:30 AM 45.2°F7.3°C 43.0°F6.1°C 92% Calm Calm -- 29.99 in1015.6 mb 0.00 in0.0 mm 0.00 in0.0 mm 0.00 in0.0 mm
06:25 AM 45.2°F7.3°C 43.0°F6.1°C 92% Calm Calm -- 29.99 in1015.6 mb 0.00 in0.0 mm 0.00 in0.0 mm 0.00 in0.0 mm
06:20 AM 45.4°F7.4°C 43.2°F6.2°C 92% Calm Calm -- 29.99 in1015.6 mb 0.00 in0.0 mm 0.00 in0.0 mm 0.00 in0.0 mm
06:15 AM 45.5°F7.5°C 43.3°F6.3°C 92% Calm Calm -- 29.99 in1015.6 mb 0.00 in0.0 mm 0.00 in0.0 mm 0.00 in0.0 mm
06:10 AM 45.8°F7.7°C 43.6°F6.4°C 92% Calm Calm -- 29.99 in1015.6 mb 0.00 in0.0 mm 0.00 in0.0 mm 0.00 in0.0 mm
06:05 AM 45.9°F7.7°C 43.7°F6.5°C 92% Calm Calm -- 29.99 in1015.6 mb 0.00 in0.0 mm 0.00 in0.0 mm 0.00 in0.0 mm
06:00 AM 46.0°F7.8°C 43.8°F6.6°C 92% Calm Calm -- 29.99 in1015.6 mb 0.00 in0.0 mm 0.00 in0.0 mm 0.00 in0.0 mm
05:55 AM 46.2°F7.9°C 44.0°F6.7°C 92% Calm Calm -- 29.98 in1015.2 mb 0.00 in0.0 mm 0.00 in0.0 mm 0.00 in0.0 mm
05:50 AM 46.3°F7.9°C 44.4°F6.9°C 93% Calm Calm -- 29.98 in1015.2 mb 0.00 in0.0 mm 0.00 in0.0 mm 0.00 in0.0 mm
05:45 AM 46.4°F8.0°C 44.5°F6.9°C 93% Calm Calm -- 29.98 in1015.2 mb 0.00 in0.0 mm 0.00 in0.0 mm 0.00 in0.0 mm
05:40 AM 46.5°F8.1°C 44.6°F7.0°C 93% Calm Calm -- 29.98 in1015.2 mb 0.00 in0.0 mm 0.00 in0.0 mm 0.00 in0.0 mm
05:35 AM 46.5°F8.1°C 44.6°F7.0°C 93% Calm Calm -- 29.98 in1015.2 mb 0.00 in0.0 mm 0.00 in0.0 mm 0.00 in0.0 mm
05:30 AM 46.5°F8.1°C 44.6°F7.0°C 93% Calm Calm -- 29.98 in1015.2 mb 0.00 in0.0 mm 0.00 in0.0 mm 0.00 in0.0 mm
05:25 AM 46.5°F8.1°C 44.6°F7.0°C 93% Calm Calm -- 29.98 in1015.2 mb 0.00 in0.0 mm 0.00 in0.0 mm 0.00 in0.0 mm
05:20 AM 46.4°F8.0°C 44.5°F6.9°C 93% Calm Calm -- 29.98 in1015.2 mb 0.00 in0.0 mm 0.00 in0.0 mm 0.00 in0.0 mm
05:15 AM 46.3°F7.9°C 44.4°F6.9°C 93% Calm Calm -- 29.98 in1015.2 mb 0.00 in0.0 mm 0.00 in0.0 mm 0.00 in0.0 mm
05:10 AM 46.2°F7.9°C 44.3°F6.8°C 93% Calm Calm -- 29.98 in1015.2 mb 0.00 in0.0 mm 0.00 in0.0 mm 0.00 in0.0 mm
05:05 AM 46.1°F7.8°C 44.2°F6.8°C 93% Calm Calm -- 29.98 in1015.2 mb 0.00 in0.0 mm 0.00 in0.0 mm 0.00 in0.0 mm
05:00 AM 46.1°F7.8°C 44.2°F6.8°C 93% Calm Calm -- 29.98 in1015.2 mb 0.00 in0.0 mm 0.00 in0.0 mm 0.00 in0.0 mm
04:55 AM 46.0°F7.8°C 44.1°F6.7°C 93% Calm Calm -- 29.97 in1014.9 mb 0.00 in0.0 mm 0.00 in0.0 mm 0.00 in0.0 mm
04:50 AM 46.0°F7.8°C 44.1°F6.7°C 93% Calm Calm -- 29.97 in1014.9 mb 0.00 in0.0 mm 0.00 in0.0 mm 0.00 in0.0 mm
04:45 AM 45.9°F7.7°C 44.0°F6.7°C 93% Calm Calm -- 29.97 in1014.9 mb 0.00 in0.0 mm 0.00 in0.0 mm 0.00 in0.0 mm
04:40 AM 45.8°F7.7°C 43.6°F6.4°C 92% Calm Calm -- 29.97 in1014.9 mb 0.00 in0.0 mm 0.00 in0.0 mm 0.00 in0.0 mm
04:35 AM 45.8°F7.7°C 43.6°F6.4°C 92% Calm Calm -- 29.97 in1014.9 mb 0.00 in0.0 mm 0.00 in0.0 mm 0.00 in0.0 mm
04:30 AM 45.7°F7.6°C 43.5°F6.4°C 92% Calm Calm -- 29.97 in1014.9 mb 0.00 in0.0 mm 0.00 in0.0 mm 0.00 in0.0 mm
04:25 AM 45.7°F7.6°C 43.5°F6.4°C 92% Calm Calm -- 29.96 in1014.6 mb 0.00 in0.0 mm 0.00 in0.0 mm 0.00 in0.0 mm
04:20 AM 45.6°F7.6°C 43.4°F6.3°C 92% Calm Calm -- 29.96 in1014.6 mb 0.00 in0.0 mm 0.00 in0.0 mm 0.00 in0.0 mm
04:15 AM 45.6°F7.6°C 43.4°F6.3°C 92% Calm Calm -- 29.96 in1014.6 mb 0.00 in0.0 mm 0.00 in0.0 mm 0.00 in0.0 mm
04:10 AM 45.7°F7.6°C 43.5°F6.4°C 92% Calm Calm -- 29.96 in1014.6 mb 0.00 in0.0 mm 0.00 in0.0 mm 0.00 in0.0 mm
04:05 AM 45.7°F7.6°C 43.5°F6.4°C 92% Calm Calm -- 29.96 in1014.6 mb 0.00 in0.0 mm 0.00 in0.0 mm 0.00 in0.0 mm
04:00 AM 45.7°F7.6°C 43.5°F6.4°C 92% Calm Calm -- 29.96 in1014.6 mb 0.00 in0.0 mm 0.00 in0.0 mm 0.00 in0.0 mm
03:55 AM 45.8°F7.7°C 43.6°F6.4°C 92% Calm Calm -- 29.96 in1014.6 mb 0.00 in0.0 mm 0.00 in0.0 mm 0.00 in0.0 mm
03:50 AM 45.9°F7.7°C 43.7°F6.5°C 92% Calm Calm -- 29.97 in1014.9 mb 0.00 in0.0 mm 0.00 in0.0 mm 0.00 in0.0 mm
03:45 AM 45.9°F7.7°C 43.7°F6.5°C 92% Calm Calm -- 29.96 in1014.6 mb 0.00 in0.0 mm 0.00 in0.0 mm 0.00 in0.0 mm
03:40 AM 46.0°F7.8°C 43.8°F6.6°C 92% Calm Calm -- 29.96 in1014.6 mb 0.00 in0.0 mm 0.00 in0.0 mm 0.00 in0.0 mm
03:35 AM 46.1°F7.8°C 43.9°F6.6°C 92% Calm Calm -- 29.96 in1014.6 mb 0.00 in0.0 mm 0.00 in0.0 mm 0.00 in0.0 mm
03:30 AM 46.2°F7.9°C 44.0°F6.7°C 92% Calm Calm -- 29.97 in1014.9 mb 0.00 in0.0 mm 0.00 in0.0 mm 0.00 in0.0 mm
03:25 AM 46.3°F7.9°C 44.1°F6.7°C 92% Calm Calm -- 29.96 in1014.6 mb 0.00 in0.0 mm 0.00 in0.0 mm 0.00 in0.0 mm
03:20 AM 46.4°F8.0°C 44.2°F6.8°C 92% Calm Calm -- 29.96 in1014.6 mb 0.00 in0.0 mm 0.00 in0.0 mm 0.00 in0.0 mm
03:15 AM 46.5°F8.1°C 44.3°F6.8°C 92% Calm Calm -- 29.96 in1014.6 mb 0.00 in0.0 mm 0.00 in0.0 mm 0.00 in0.0 mm
03:10 AM 46.6°F8.1°C 44.4°F6.9°C 92% Calm Calm -- 29.96 in1014.6 mb 0.00 in0.0 mm 0.00 in0.0 mm 0.00 in0.0 mm
03:05 AM 46.6°F8.1°C 44.4°F6.9°C 92% Calm Calm -- 29.96 in1014.6 mb 0.00 in0.0 mm 0.00 in0.0 mm 0.00 in0.0 mm
03:00 AM 46.7°F8.2°C 44.5°F6.9°C 92% Calm Calm -- 29.96 in1014.6 mb 0.00 in0.0 mm 0.00 in0.0 mm 0.00 in0.0 mm
02:55 AM 46.7°F8.2°C 44.5°F6.9°C 92% Calm Calm -- 29.96 in1014.6 mb 0.00 in0.0 mm 0.00 in0.0 mm 0.00 in0.0 mm
02:50 AM 46.7°F8.2°C 44.8°F7.1°C 93% Calm Calm -- 29.96 in1014.6 mb 0.00 in0.0 mm 0.00 in0.0 mm 0.00 in0.0 mm
02:45 AM 46.7°F8.2°C 44.8°F7.1°C 93% Calm Calm -- 29.96 in1014.6 mb 0.00 in0.0 mm 0.00 in0.0 mm 0.00 in0.0 mm
02:40 AM 46.7°F8.2°C 44.8°F7.1°C 93% Calm Calm -- 29.96 in1014.6 mb 0.00 in0.0 mm 0.00 in0.0 mm 0.00 in0.0 mm
02:35 AM 46.7°F8.2°C 44.8°F7.1°C 93% Calm Calm -- 29.96 in1014.6 mb 0.00 in0.0 mm 0.00 in0.0 mm 0.00 in0.0 mm
02:30 AM 46.7°F8.2°C 44.8°F7.1°C 93% Calm Calm -- 29.96 in1014.6 mb 0.00 in0.0 mm 0.00 in0.0 mm 0.00 in0.0 mm
02:25 AM 46.6°F8.1°C 44.7°F7.1°C 93% Calm Calm -- 29.96 in1014.6 mb 0.00 in0.0 mm 0.00 in0.0 mm 0.00 in0.0 mm
02:20 AM 46.5°F8.1°C 44.3°F6.8°C 92% Calm Calm -- 29.96 in1014.6 mb 0.00 in0.0 mm 0.00 in0.0 mm 0.00 in0.0 mm
02:15 AM 46.3°F7.9°C 44.1°F6.7°C 92% Calm Calm -- 29.96 in1014.6 mb 0.00 in0.0 mm 0.00 in0.0 mm 0.00 in0.0 mm
02:10 AM 46.1°F7.8°C 43.9°F6.6°C 92% Calm Calm -- 29.96 in1014.6 mb 0.00 in0.0 mm 0.00 in0.0 mm 0.00 in0.0 mm
02:05 AM 45.9°F7.7°C 43.7°F6.5°C 92% Calm Calm -- 29.96 in1014.6 mb 0.00 in0.0 mm 0.00 in0.0 mm 0.00 in0.0 mm
02:00 AM 45.8°F7.7°C 43.6°F6.4°C 92% Calm Calm -- 29.96 in1014.6 mb 0.00 in0.0 mm 0.00 in0.0 mm 0.00 in0.0 mm
01:55 AM 45.6°F7.6°C 43.4°F6.3°C 92% Calm Calm -- 29.96 in1014.6 mb 0.00 in0.0 mm 0.00 in0.0 mm 0.00 in0.0 mm
01:50 AM 45.4°F7.4°C 43.2°F6.2°C 92% Calm Calm -- 29.96 in1014.6 mb 0.00 in0.0 mm 0.00 in0.0 mm 0.00 in0.0 mm
01:45 AM 45.1°F7.3°C 42.6°F5.9°C 91% Calm Calm -- 29.96 in1014.6 mb 0.00 in0.0 mm 0.00 in0.0 mm 0.00 in0.0 mm
01:40 AM 44.8°F7.1°C 42.3°F5.7°C 91% Calm Calm -- 29.96 in1014.6 mb 0.00 in0.0 mm 0.00 in0.0 mm 0.00 in0.0 mm
01:35 AM 44.7°F7.1°C 42.2°F5.7°C 91% Calm Calm -- 29.96 in1014.6 mb 0.00 in0.0 mm 0.00 in0.0 mm 0.00 in0.0 mm
01:30 AM 44.6°F7.0°C 41.9°F5.5°C 90% Calm Calm -- 29.96 in1014.6 mb 0.00 in0.0 mm 0.00 in0.0 mm 0.00 in0.0 mm
01:25 AM 44.5°F6.9°C 41.8°F5.4°C 90% Calm Calm -- 29.96 in1014.6 mb 0.00 in0.0 mm 0.00 in0.0 mm 0.00 in0.0 mm
01:20 AM 44.3°F6.8°C 41.6°F5.3°C 90% Calm Calm -- 29.97 in1014.9 mb 0.00 in0.0 mm 0.00 in0.0 mm 0.00 in0.0 mm
01:15 AM 44.3°F6.8°C 41.6°F5.3°C 90% Calm Calm -- 29.97 in1014.9 mb 0.00 in0.0 mm 0.00 in0.0 mm 0.00 in0.0 mm
01:10 AM 44.2°F6.8°C 41.2°F5.1°C 89% Calm Calm -- 29.96 in1014.6 mb 0.00 in0.0 mm 0.00 in0.0 mm 0.00 in0.0 mm
01:05 AM 44.3°F6.8°C 41.3°F5.2°C 89% Calm Calm -- 29.96 in1014.6 mb 0.00 in0.0 mm 0.00 in0.0 mm 0.00 in0.0 mm
01:00 AM 44.3°F6.8°C 41.3°F5.2°C 89% Calm Calm -- 29.96 in1014.6 mb 0.00 in0.0 mm 0.00 in0.0 mm 0.00 in0.0 mm
12:55 AM 44.3°F6.8°C 41.3°F5.2°C 89% Calm Calm -- 29.97 in1014.9 mb 0.00 in0.0 mm 0.00 in0.0 mm 0.00 in0.0 mm
12:50 AM 44.4°F6.9°C 41.1°F5.1°C 88% Calm Calm -- 29.96 in1014.6 mb 0.00 in0.0 mm 0.00 in0.0 mm 0.00 in0.0 mm
12:45 AM 44.4°F6.9°C 41.1°F5.1°C 88% Calm Calm -- 29.96 in1014.6 mb 0.00 in0.0 mm 0.00 in0.0 mm 0.00 in0.0 mm
12:40 AM 44.6°F7.0°C 41.3°F5.2°C 88% Calm Calm -- 29.96 in1014.6 mb 0.00 in0.0 mm 0.00 in0.0 mm 0.00 in0.0 mm
12:35 AM 44.7°F7.1°C 41.4°F5.2°C 88% Calm Calm -- 29.96 in1014.6 mb 0.00 in0.0 mm 0.00 in0.0 mm 0.00 in0.0 mm
12:30 AM 44.8°F7.1°C 41.5°F5.3°C 88% Calm Calm -- 29.95 in1014.2 mb 0.00 in0.0 mm 0.00 in0.0 mm 0.00 in0.0 mm
12:25 AM 45.0°F7.2°C 41.7°F5.4°C 88% Calm Calm -- 29.95 in1014.2 mb 0.00 in0.0 mm 0.00 in0.0 mm 0.00 in0.0 mm
12:20 AM 45.1°F7.3°C 41.8°F5.4°C 88% Calm Calm -- 29.95 in1014.2 mb 0.00 in0.0 mm 0.00 in0.0 mm 0.00 in0.0 mm
12:15 AM 45.6°F7.6°C 42.0°F5.6°C 87% Calm Calm -- 29.95 in1014.2 mb 0.00 in0.0 mm 0.00 in0.0 mm 0.00 in0.0 mm
12:10 AM 45.6°F7.6°C 42.0°F5.6°C 87% Calm Calm -- 29.95 in1014.2 mb 0.00 in0.0 mm 0.00 in0.0 mm 0.00 in0.0 mm
12:05 AM 45.6°F7.6°C 42.0°F5.6°C 87% Calm Calm -- 29.95 in1014.2 mb 0.00 in0.0 mm 0.00 in0.0 mm 0.00 in0.0 mm
12:00 AM 45.6°F7.6°C 42.0°F5.6°C 87% Calm Calm -- 29.96 in1014.6 mb 0.00 in0.0 mm 0.00 in0.0 mm 0.00 in0.0 mm